sensor_id;sensor_type;location;lat;lon;timestamp;P1;durP1;ratioP1;P2;durP2;ratioP2
74347;SDS011;62778;50.406;10.008;2022-12-05T00:00:16;9.33;;;5.20;;
74347;SDS011;62778;50.406;10.008;2022-12-05T00:01:24;10.40;;;6.00;;
74347;SDS011;62778;50.406;10.008;2022-12-05T00:02:25;12.45;;;6.72;;
74347;SDS011;62778;50.406;10.008;2022-12-05T00:03:20;11.00;;;6.03;;
74347;SDS011;62778;50.406;10.008;2022-12-05T00:04:16;11.07;;;6.00;;
74347;SDS011;62778;50.406;10.008;2022-12-05T00:05:11;12.50;;;7.20;;
74347;SDS011;62778;50.406;10.008;2022-12-05T00:06:07;14.00;;;7.50;;
74347;SDS011;62778;50.406;10.008;2022-12-05T00:07:02;12.93;;;7.03;;
74347;SDS011;62778;50.406;10.008;2022-12-05T00:07:57;11.50;;;7.07;;
74347;SDS011;62778;50.406;10.008;2022-12-05T00:08:53;13.40;;;7.43;;
74347;SDS011;62778;50.406;10.008;2022-12-05T00:09:48;12.87;;;7.40;;
74347;SDS011;62778;50.406;10.008;2022-12-05T00:10:44;11.88;;;6.75;;
74347;SDS011;62778;50.406;10.008;2022-12-05T00:11:41;11.60;;;6.73;;
74347;SDS011;62778;50.406;10.008;2022-12-05T00:12:36;10.57;;;5.97;;
74347;SDS011;62778;50.406;10.008;2022-12-05T00:13:32;11.27;;;6.57;;
74347;SDS011;62778;50.406;10.008;2022-12-05T00:14:27;12.47;;;6.53;;
74347;SDS011;62778;50.406;10.008;2022-12-05T00:15:22;13.20;;;7.20;;
74347;SDS011;62778;50.406;10.008;2022-12-05T00:16:19;11.00;;;6.27;;
74347;SDS011;62778;50.406;10.008;2022-12-05T00:17:16;9.95;;;5.72;;
74347;SDS011;62778;50.406;10.008;2022-12-05T00:18:11;10.80;;;5.97;;
74347;SDS011;62778;50.406;10.008;2022-12-05T00:19:07;12.13;;;6.80;;
74347;SDS011;62778;50.406;10.008;2022-12-05T00:20:03;11.35;;;6.30;;
74347;SDS011;62778;50.406;10.008;2022-12-05T00:20:59;11.57;;;6.38;;
74347;SDS011;62778;50.406;10.008;2022-12-05T00:21:54;12.80;;;6.40;;
74347;SDS011;62778;50.406;10.008;2022-12-05T00:22:51;11.43;;;6.72;;
74347;SDS011;62778;50.406;10.008;2022-12-05T00:23:47;10.93;;;6.30;;
74347;SDS011;62778;50.406;10.008;2022-12-05T00:24:42;11.63;;;6.43;;
74347;SDS011;62778;50.406;10.008;2022-12-05T00:25:38;13.30;;;7.30;;
74347;SDS011;62778;50.406;10.008;2022-12-05T00:26:34;11.60;;;6.22;;
74347;SDS011;62778;50.406;10.008;2022-12-05T00:27:29;11.17;;;6.27;;
74347;SDS011;62778;50.406;10.008;2022-12-05T00:28:25;13.35;;;7.05;;
74347;SDS011;62778;50.406;10.008;2022-12-05T00:29:20;14.20;;;7.70;;
74347;SDS011;62778;50.406;10.008;2022-12-05T00:30:15;13.27;;;7.37;;
74347;SDS011;62778;50.406;10.008;2022-12-05T00:31:15;12.67;;;6.87;;
74347;SDS011;62778;50.406;10.008;2022-12-05T00:32:12;13.23;;;7.25;;
74347;SDS011;62778;50.406;10.008;2022-12-05T00:33:07;12.43;;;7.03;;
74347;SDS011;62778;50.406;10.008;2022-12-05T00:34:02;11.73;;;6.53;;
74347;SDS011;62778;50.406;10.008;2022-12-05T00:34:58;11.97;;;7.10;;
74347;SDS011;62778;50.406;10.008;2022-12-05T00:35:53;11.57;;;6.70;;
74347;SDS011;62778;50.406;10.008;2022-12-05T00:36:48;11.05;;;6.00;;
74347;SDS011;62778;50.406;10.008;2022-12-05T00:37:44;12.43;;;6.53;;
74347;SDS011;62778;50.406;10.008;2022-12-05T00:38:39;11.50;;;6.70;;
74347;SDS011;62778;50.406;10.008;2022-12-05T00:39:36;10.75;;;6.68;;
74347;SDS011;62778;50.406;10.008;2022-12-05T00:40:33;12.10;;;7.30;;
74347;SDS011;62778;50.406;10.008;2022-12-05T00:41:29;11.50;;;6.30;;
74347;SDS011;62778;50.406;10.008;2022-12-05T00:42:25;11.13;;;6.80;;
74347;SDS011;62778;50.406;10.008;2022-12-05T00:43:20;12.30;;;6.85;;
74347;SDS011;62778;50.406;10.008;2022-12-05T00:44:15;12.60;;;7.13;;
74347;SDS011;62778;50.406;10.008;2022-12-05T00:45:11;11.13;;;6.37;;
74347;SDS011;62778;50.406;10.008;2022-12-05T00:46:13;10.33;;;6.07;;
74347;SDS011;62778;50.406;10.008;2022-12-05T00:47:13;12.10;;;6.68;;
74347;SDS011;62778;50.406;10.008;2022-12-05T00:48:08;13.37;;;7.37;;
74347;SDS011;62778;50.406;10.008;2022-12-05T00:49:04;12.43;;;7.43;;
74347;SDS011;62778;50.406;10.008;2022-12-05T00:50:01;12.17;;;7.00;;
74347;SDS011;62778;50.406;10.008;2022-12-05T00:51:00;11.30;;;6.15;;
74347;SDS011;62778;50.406;10.008;2022-12-05T00:51:56;13.70;;;8.07;;
74347;SDS011;62778;50.406;10.008;2022-12-05T00:52:51;13.03;;;6.90;;
74347;SDS011;62778;50.406;10.008;2022-12-05T00:53:46;12.15;;;7.07;;
74347;SDS011;62778;50.406;10.008;2022-12-05T00:54:42;12.17;;;6.53;;
74347;SDS011;62778;50.406;10.008;2022-12-05T00:55:37;11.83;;;6.43;;
74347;SDS011;62778;50.406;10.008;2022-12-05T00:56:33;13.67;;;6.97;;
74347;SDS011;62778;50.406;10.008;2022-12-05T00:57:29;11.60;;;6.43;;
74347;SDS011;62778;50.406;10.008;2022-12-05T00:58:24;10.23;;;6.15;;
74347;SDS011;62778;50.406;10.008;2022-12-05T00:59:19;11.60;;;6.70;;
74347;SDS011;62778;50.406;10.008;2022-12-05T01:00:15;11.27;;;6.47;;
74347;SDS011;62778;50.406;10.008;2022-12-05T01:01:18;13.82;;;6.85;;
74347;SDS011;62778;50.406;10.008;2022-12-05T01:02:17;13.00;;;6.88;;
74347;SDS011;62778;50.406;10.008;2022-12-05T01:03:12;12.30;;;6.73;;
74347;SDS011;62778;50.406;10.008;2022-12-05T01:04:12;11.47;;;6.70;;
74347;SDS011;62778;50.406;10.008;2022-12-05T01:05:09;11.57;;;6.40;;
74347;SDS011;62778;50.406;10.008;2022-12-05T01:06:05;12.47;;;6.97;;
74347;SDS011;62778;50.406;10.008;2022-12-05T01:07:00;11.65;;;7.05;;
74347;SDS011;62778;50.406;10.008;2022-12-05T01:07:56;12.23;;;6.87;;
74347;SDS011;62778;50.406;10.008;2022-12-05T01:08:54;11.33;;;6.57;;
74347;SDS011;62778;50.406;10.008;2022-12-05T01:09:50;12.13;;;7.05;;
74347;SDS011;62778;50.406;10.008;2022-12-05T01:11:04;13.38;;;7.38;;
74347;SDS011;62778;50.406;10.008;2022-12-05T01:12:00;10.32;;;6.15;;
74347;SDS011;62778;50.406;10.008;2022-12-05T01:12:56;10.63;;;6.30;;
74347;SDS011;62778;50.406;10.008;2022-12-05T01:13:51;10.80;;;6.10;;
74347;SDS011;62778;50.406;10.008;2022-12-05T01:14:47;13.30;;;6.82;;
74347;SDS011;62778;50.406;10.008;2022-12-05T01:15:42;11.80;;;6.60;;
74347;SDS011;62778;50.406;10.008;2022-12-05T01:16:38;11.40;;;6.60;;
74347;SDS011;62778;50.406;10.008;2022-12-05T01:17:35;11.68;;;6.28;;
74347;SDS011;62778;50.406;10.008;2022-12-05T01:18:30;12.17;;;6.00;;
74347;SDS011;62778;50.406;10.008;2022-12-05T01:19:27;11.43;;;6.30;;
74347;SDS011;62778;50.406;10.008;2022-12-05T01:20:23;11.35;;;6.13;;
74347;SDS011;62778;50.406;10.008;2022-12-05T01:21:19;11.60;;;6.10;;
74347;SDS011;62778;50.406;10.008;2022-12-05T01:22:15;11.05;;;5.60;;
74347;SDS011;62778;50.406;10.008;2022-12-05T01:23:10;10.23;;;5.73;;
74347;SDS011;62778;50.406;10.008;2022-12-05T01:24:06;10.93;;;6.10;;
74347;SDS011;62778;50.406;10.008;2022-12-05T01:25:02;11.20;;;6.07;;
74347;SDS011;62778;50.406;10.008;2022-12-05T01:25:59;11.20;;;6.60;;
74347;SDS011;62778;50.406;10.008;2022-12-05T01:26:54;10.18;;;5.78;;
74347;SDS011;62778;50.406;10.008;2022-12-05T01:27:50;10.77;;;5.93;;
74347;SDS011;62778;50.406;10.008;2022-12-05T01:28:45;10.90;;;6.20;;
74347;SDS011;62778;50.406;10.008;2022-12-05T01:29:41;10.10;;;5.88;;
74347;SDS011;62778;50.406;10.008;2022-12-05T01:30:37;10.80;;;6.50;;
74347;SDS011;62778;50.406;10.008;2022-12-05T01:31:36;11.35;;;5.95;;
74347;SDS011;62778;50.406;10.008;2022-12-05T01:32:32;12.52;;;6.35;;
74347;SDS011;62778;50.406;10.008;2022-12-05T01:33:27;12.50;;;6.80;;
74347;SDS011;62778;50.406;10.008;2022-12-05T01:34:23;11.07;;;6.50;;
74347;SDS011;62778;50.406;10.008;2022-12-05T01:35:18;12.85;;;7.20;;
74347;SDS011;62778;50.406;10.008;2022-12-05T01:36:14;11.13;;;6.40;;
74347;SDS011;62778;50.406;10.008;2022-12-05T01:37:10;12.03;;;6.77;;
74347;SDS011;62778;50.406;10.008;2022-12-05T01:38:05;12.70;;;7.20;;
74347;SDS011;62778;50.406;10.008;2022-12-05T01:39:00;12.75;;;7.15;;
74347;SDS011;62778;50.406;10.008;2022-12-05T01:39:56;14.40;;;7.37;;
74347;SDS011;62778;50.406;10.008;2022-12-05T01:41:04;13.10;;;7.80;;
74347;SDS011;62778;50.406;10.008;2022-12-05T01:42:00;13.43;;;7.65;;
74347;SDS011;62778;50.406;10.008;2022-12-05T01:42:55;15.77;;;8.23;;
74347;SDS011;62778;50.406;10.008;2022-12-05T01:43:52;13.32;;;7.28;;
74347;SDS011;62778;50.406;10.008;2022-12-05T01:45:43;12.63;;;5.90;;
74347;SDS011;62778;50.406;10.008;2022-12-05T01:47:39;11.32;;;6.88;;
74347;SDS011;62778;50.406;10.008;2022-12-05T01:48:34;12.07;;;6.50;;
74347;SDS011;62778;50.406;10.008;2022-12-05T01:49:31;12.33;;;6.90;;
74347;SDS011;62778;50.406;10.008;2022-12-05T01:50:28;12.30;;;6.40;;
74347;SDS011;62778;50.406;10.008;2022-12-05T01:51:24;11.88;;;6.93;;
74347;SDS011;62778;50.406;10.008;2022-12-05T01:52:21;13.10;;;7.43;;
74347;SDS011;62778;50.406;10.008;2022-12-05T01:53:17;12.38;;;6.93;;
74347;SDS011;62778;50.406;10.008;2022-12-05T01:54:14;12.95;;;7.03;;
74347;SDS011;62778;50.406;10.008;2022-12-05T01:55:12;13.45;;;7.80;;
74347;SDS011;62778;50.406;10.008;2022-12-05T01:56:08;14.52;;;7.68;;
74347;SDS011;62778;50.406;10.008;2022-12-05T01:57:07;12.80;;;6.93;;
74347;SDS011;62778;50.406;10.008;2022-12-05T01:58:05;12.35;;;7.30;;
74347;SDS011;62778;50.406;10.008;2022-12-05T01:59:02;16.17;;;8.55;;
74347;SDS011;62778;50.406;10.008;2022-12-05T02:00:03;13.40;;;7.90;;
74347;SDS011;62778;50.406;10.008;2022-12-05T02:01:04;14.02;;;7.47;;
74347;SDS011;62778;50.406;10.008;2022-12-05T02:02:01;15.80;;;8.67;;
74347;SDS011;62778;50.406;10.008;2022-12-05T02:02:59;14.48;;;8.18;;
74347;SDS011;62778;50.406;10.008;2022-12-05T02:03:56;14.93;;;8.25;;
74347;SDS011;62778;50.406;10.008;2022-12-05T02:05:11;15.17;;;8.93;;
74347;SDS011;62778;50.406;10.008;2022-12-05T02:06:12;13.25;;;7.50;;
74347;SDS011;62778;50.406;10.008;2022-12-05T02:07:08;13.60;;;7.25;;
74347;SDS011;62778;50.406;10.008;2022-12-05T02:08:04;14.20;;;7.57;;
74347;SDS011;62778;50.406;10.008;2022-12-05T02:09:04;14.02;;;7.60;;
74347;SDS011;62778;50.406;10.008;2022-12-05T02:09:59;14.50;;;7.47;;
74347;SDS011;62778;50.406;10.008;2022-12-05T02:10:55;15.53;;;8.60;;
74347;SDS011;62778;50.406;10.008;2022-12-05T02:11:55;13.70;;;8.25;;
74347;SDS011;62778;50.406;10.008;2022-12-05T02:12:52;14.77;;;8.35;;
74347;SDS011;62778;50.406;10.008;2022-12-05T02:15:10;14.32;;;7.65;;
74347;SDS011;62778;50.406;10.008;2022-12-05T02:21:02;15.48;;;7.55;;
74347;SDS011;62778;50.406;10.008;2022-12-05T02:26:11;14.07;;;7.80;;
74347;SDS011;62778;50.406;10.008;2022-12-05T02:29:25;14.38;;;7.57;;
74347;SDS011;62778;50.406;10.008;2022-12-05T02:30:23;14.43;;;7.50;;
74347;SDS011;62778;50.406;10.008;2022-12-05T02:32:25;17.67;;;9.32;;
74347;SDS011;62778;50.406;10.008;2022-12-05T02:33:33;16.92;;;9.10;;
74347;SDS011;62778;50.406;10.008;2022-12-05T02:34:37;14.98;;;8.80;;
74347;SDS011;62778;50.406;10.008;2022-12-05T02:35:48;15.02;;;7.90;;
74347;SDS011;62778;50.406;10.008;2022-12-05T02:36:58;14.50;;;8.00;;
74347;SDS011;62778;50.406;10.008;2022-12-05T02:38:01;15.77;;;8.00;;
74347;SDS011;62778;50.406;10.008;2022-12-05T02:39:13;14.60;;;8.27;;
74347;SDS011;62778;50.406;10.008;2022-12-05T02:40:19;15.45;;;7.80;;
74347;SDS011;62778;50.406;10.008;2022-12-05T02:41:21;12.90;;;7.32;;
74347;SDS011;62778;50.406;10.008;2022-12-05T02:42:42;12.27;;;6.88;;
74347;SDS011;62778;50.406;10.008;2022-12-05T02:44:51;12.45;;;7.13;;
74347;SDS011;62778;50.406;10.008;2022-12-05T02:45:51;13.20;;;7.53;;
74347;SDS011;62778;50.406;10.008;2022-12-05T02:46:48;13.73;;;7.68;;
74347;SDS011;62778;50.406;10.008;2022-12-05T02:47:48;14.83;;;7.60;;
74347;SDS011;62778;50.406;10.008;2022-12-05T02:48:45;13.52;;;6.93;;
74347;SDS011;62778;50.406;10.008;2022-12-05T02:49:41;12.95;;;7.00;;
74347;SDS011;62778;50.406;10.008;2022-12-05T02:50:37;15.18;;;8.75;;
74347;SDS011;62778;50.406;10.008;2022-12-05T02:51:34;16.53;;;9.17;;
74347;SDS011;62778;50.406;10.008;2022-12-05T02:52:33;15.35;;;8.50;;
74347;SDS011;62778;50.406;10.008;2022-12-05T02:53:29;15.70;;;8.40;;
74347;SDS011;62778;50.406;10.008;2022-12-05T02:54:26;14.73;;;8.20;;
74347;SDS011;62778;50.406;10.008;2022-12-05T02:55:24;16.50;;;9.27;;
74347;SDS011;62778;50.406;10.008;2022-12-05T02:56:20;14.27;;;7.30;;
74347;SDS011;62778;50.406;10.008;2022-12-05T02:57:16;14.17;;;7.87;;
74347;SDS011;62778;50.406;10.008;2022-12-05T02:58:13;15.52;;;8.30;;
74347;SDS011;62778;50.406;10.008;2022-12-05T02:59:11;13.20;;;7.30;;
74347;SDS011;62778;50.406;10.008;2022-12-05T03:00:06;13.90;;;7.67;;
74347;SDS011;62778;50.406;10.008;2022-12-05T03:01:02;13.40;;;7.57;;
74347;SDS011;62778;50.406;10.008;2022-12-05T03:01:58;14.60;;;7.77;;
74347;SDS011;62778;50.406;10.008;2022-12-05T03:02:55;14.63;;;8.07;;
74347;SDS011;62778;50.406;10.008;2022-12-05T03:03:53;14.63;;;8.23;;
74347;SDS011;62778;50.406;10.008;2022-12-05T03:04:49;13.13;;;7.38;;
74347;SDS011;62778;50.406;10.008;2022-12-05T03:05:47;12.67;;;7.17;;
74347;SDS011;62778;50.406;10.008;2022-12-05T03:07:02;14.77;;;7.45;;
74347;SDS011;62778;50.406;10.008;2022-12-05T03:08:00;14.60;;;7.82;;
74347;SDS011;62778;50.406;10.008;2022-12-05T03:09:58;14.40;;;8.00;;
74347;SDS011;62778;50.406;10.008;2022-12-05T03:10:55;13.48;;;7.20;;
74347;SDS011;62778;50.406;10.008;2022-12-05T03:13:06;12.77;;;7.07;;
74347;SDS011;62778;50.406;10.008;2022-12-05T03:14:04;13.10;;;7.38;;
74347;SDS011;62778;50.406;10.008;2022-12-05T03:15:03;12.53;;;6.63;;
74347;SDS011;62778;50.406;10.008;2022-12-05T03:16:17;12.57;;;7.22;;
74347;SDS011;62778;50.406;10.008;2022-12-05T03:17:19;13.10;;;7.47;;
74347;SDS011;62778;50.406;10.008;2022-12-05T03:19:31;13.27;;;7.53;;
74347;SDS011;62778;50.406;10.008;2022-12-05T03:20:41;13.55;;;6.78;;
74347;SDS011;62778;50.406;10.008;2022-12-05T03:21:44;12.95;;;6.80;;
74347;SDS011;62778;50.406;10.008;2022-12-05T03:22:51;13.55;;;6.80;;
74347;SDS011;62778;50.406;10.008;2022-12-05T03:23:55;12.57;;;6.93;;
74347;SDS011;62778;50.406;10.008;2022-12-05T03:24:54;13.60;;;7.32;;
74347;SDS011;62778;50.406;10.008;2022-12-05T03:26:10;14.47;;;7.40;;
74347;SDS011;62778;50.406;10.008;2022-12-05T03:27:24;13.45;;;7.32;;
74347;SDS011;62778;50.406;10.008;2022-12-05T03:28:31;14.77;;;8.15;;
74347;SDS011;62778;50.406;10.008;2022-12-05T03:29:41;15.70;;;7.78;;
74347;SDS011;62778;50.406;10.008;2022-12-05T03:30:47;15.40;;;8.40;;
74347;SDS011;62778;50.406;10.008;2022-12-05T03:33:04;13.18;;;7.03;;
74347;SDS011;62778;50.406;10.008;2022-12-05T03:34:06;12.05;;;6.53;;
74347;SDS011;62778;50.406;10.008;2022-12-05T03:36:13;13.80;;;7.40;;
74347;SDS011;62778;50.406;10.008;2022-12-05T03:37:23;13.40;;;7.60;;
74347;SDS011;62778;50.406;10.008;2022-12-05T03:38:28;12.98;;;6.85;;
74347;SDS011;62778;50.406;10.008;2022-12-05T03:39:28;14.02;;;7.40;;
74347;SDS011;62778;50.406;10.008;2022-12-05T03:42:35;13.60;;;7.28;;
74347;SDS011;62778;50.406;10.008;2022-12-05T03:45:52;13.15;;;7.60;;
74347;SDS011;62778;50.406;10.008;2022-12-05T03:46:52;12.80;;;7.43;;
74347;SDS011;62778;50.406;10.008;2022-12-05T03:47:56;12.63;;;7.07;;
74347;SDS011;62778;50.406;10.008;2022-12-05T03:49:15;11.50;;;6.80;;
74347;SDS011;62778;50.406;10.008;2022-12-05T03:50:19;14.13;;;7.82;;
74347;SDS011;62778;50.406;10.008;2022-12-05T03:51:17;13.77;;;7.65;;
74347;SDS011;62778;50.406;10.008;2022-12-05T03:52:19;13.27;;;6.82;;
74347;SDS011;62778;50.406;10.008;2022-12-05T03:53:24;11.98;;;6.63;;
74347;SDS011;62778;50.406;10.008;2022-12-05T03:54:25;11.27;;;6.45;;
74347;SDS011;62778;50.406;10.008;2022-12-05T03:55:24;12.85;;;7.10;;
74347;SDS011;62778;50.406;10.008;2022-12-05T03:56:24;11.95;;;6.93;;
74347;SDS011;62778;50.406;10.008;2022-12-05T03:57:36;11.67;;;6.07;;
74347;SDS011;62778;50.406;10.008;2022-12-05T03:58:40;11.65;;;6.82;;
74347;SDS011;62778;50.406;10.008;2022-12-05T04:00:48;11.93;;;6.82;;
74347;SDS011;62778;50.406;10.008;2022-12-05T04:01:46;11.20;;;6.15;;
74347;SDS011;62778;50.406;10.008;2022-12-05T04:03:40;11.25;;;6.55;;
74347;SDS011;62778;50.406;10.008;2022-12-05T04:04:40;11.35;;;6.68;;
74347;SDS011;62778;50.406;10.008;2022-12-05T04:05:58;13.45;;;7.38;;
74347;SDS011;62778;50.406;10.008;2022-12-05T04:06:55;11.80;;;6.72;;
74347;SDS011;62778;50.406;10.008;2022-12-05T04:07:54;12.97;;;7.13;;
74347;SDS011;62778;50.406;10.008;2022-12-05T04:08:57;12.85;;;6.78;;
74347;SDS011;62778;50.406;10.008;2022-12-05T04:10:13;13.13;;;7.13;;
74347;SDS011;62778;50.406;10.008;2022-12-05T04:11:13;12.35;;;7.47;;
74347;SDS011;62778;50.406;10.008;2022-12-05T04:12:13;12.73;;;7.22;;
74347;SDS011;62778;50.406;10.008;2022-12-05T04:13:13;14.07;;;7.93;;
74347;SDS011;62778;50.406;10.008;2022-12-05T04:14:14;12.48;;;7.45;;
74347;SDS011;62778;50.406;10.008;2022-12-05T04:15:15;13.82;;;7.85;;
74347;SDS011;62778;50.406;10.008;2022-12-05T04:16:16;13.68;;;7.28;;
74347;SDS011;62778;50.406;10.008;2022-12-05T04:17:34;13.23;;;6.97;;
74347;SDS011;62778;50.406;10.008;2022-12-05T04:18:35;13.43;;;6.93;;
74347;SDS011;62778;50.406;10.008;2022-12-05T04:19:52;12.52;;;7.03;;
74347;SDS011;62778;50.406;10.008;2022-12-05T04:21:07;13.15;;;6.90;;
74347;SDS011;62778;50.406;10.008;2022-12-05T04:22:23;15.30;;;7.70;;
74347;SDS011;62778;50.406;10.008;2022-12-05T04:23:18;14.32;;;7.82;;
74347;SDS011;62778;50.406;10.008;2022-12-05T04:24:16;12.90;;;7.32;;
74347;SDS011;62778;50.406;10.008;2022-12-05T04:25:36;13.20;;;7.70;;
74347;SDS011;62778;50.406;10.008;2022-12-05T04:26:45;14.17;;;7.53;;
74347;SDS011;62778;50.406;10.008;2022-12-05T04:28:56;15.05;;;8.45;;
74347;SDS011;62778;50.406;10.008;2022-12-05T04:30:07;15.68;;;9.13;;
74347;SDS011;62778;50.406;10.008;2022-12-05T04:31:10;15.95;;;8.55;;
74347;SDS011;62778;50.406;10.008;2022-12-05T04:32:07;15.20;;;8.10;;
74347;SDS011;62778;50.406;10.008;2022-12-05T04:33:05;15.80;;;8.95;;
74347;SDS011;62778;50.406;10.008;2022-12-05T04:34:06;14.27;;;8.57;;
74347;SDS011;62778;50.406;10.008;2022-12-05T04:35:02;16.17;;;8.65;;
74347;SDS011;62778;50.406;10.008;2022-12-05T04:36:12;15.70;;;9.30;;
74347;SDS011;62778;50.406;10.008;2022-12-05T04:37:23;16.13;;;8.97;;
74347;SDS011;62778;50.406;10.008;2022-12-05T04:38:29;16.48;;;8.90;;
74347;SDS011;62778;50.406;10.008;2022-12-05T04:40:32;14.02;;;8.57;;
74347;SDS011;62778;50.406;10.008;2022-12-05T04:41:33;15.15;;;7.95;;
74347;SDS011;62778;50.406;10.008;2022-12-05T04:42:31;12.40;;;7.55;;
74347;SDS011;62778;50.406;10.008;2022-12-05T04:43:29;13.77;;;7.70;;
74347;SDS011;62778;50.406;10.008;2022-12-05T04:44:31;15.65;;;8.02;;
74347;SDS011;62778;50.406;10.008;2022-12-05T04:45:28;16.15;;;8.55;;
74347;SDS011;62778;50.406;10.008;2022-12-05T04:46:24;14.50;;;8.17;;
74347;SDS011;62778;50.406;10.008;2022-12-05T04:47:21;13.68;;;7.40;;
74347;SDS011;62778;50.406;10.008;2022-12-05T04:48:21;13.23;;;7.13;;
74347;SDS011;62778;50.406;10.008;2022-12-05T04:49:20;14.63;;;7.37;;
74347;SDS011;62778;50.406;10.008;2022-12-05T04:50:17;13.40;;;7.40;;
74347;SDS011;62778;50.406;10.008;2022-12-05T04:51:18;11.95;;;7.00;;
74347;SDS011;62778;50.406;10.008;2022-12-05T04:52:15;13.70;;;7.40;;
74347;SDS011;62778;50.406;10.008;2022-12-05T04:53:11;11.13;;;6.70;;
74347;SDS011;62778;50.406;10.008;2022-12-05T04:54:20;15.20;;;7.93;;
74347;SDS011;62778;50.406;10.008;2022-12-05T04:55:19;11.95;;;6.78;;
74347;SDS011;62778;50.406;10.008;2022-12-05T04:56:19;13.00;;;7.50;;
74347;SDS011;62778;50.406;10.008;2022-12-05T04:57:21;13.77;;;7.68;;
74347;SDS011;62778;50.406;10.008;2022-12-05T04:58:21;14.23;;;7.43;;
74347;SDS011;62778;50.406;10.008;2022-12-05T04:59:17;13.13;;;7.43;;
74347;SDS011;62778;50.406;10.008;2022-12-05T05:00:12;14.63;;;7.80;;
74347;SDS011;62778;50.406;10.008;2022-12-05T05:01:29;14.80;;;7.72;;
74347;SDS011;62778;50.406;10.008;2022-12-05T05:02:32;13.52;;;7.53;;
74347;SDS011;62778;50.406;10.008;2022-12-05T05:04:35;12.67;;;7.50;;
74347;SDS011;62778;50.406;10.008;2022-12-05T05:05:33;13.05;;;7.50;;
74347;SDS011;62778;50.406;10.008;2022-12-05T05:06:29;14.95;;;8.15;;
74347;SDS011;62778;50.406;10.008;2022-12-05T05:07:24;14.20;;;8.53;;
74347;SDS011;62778;50.406;10.008;2022-12-05T05:08:21;16.58;;;8.07;;
74347;SDS011;62778;50.406;10.008;2022-12-05T05:09:18;17.98;;;10.18;;
74347;SDS011;62778;50.406;10.008;2022-12-05T05:10:15;15.07;;;8.73;;
74347;SDS011;62778;50.406;10.008;2022-12-05T05:11:15;15.50;;;8.98;;
74347;SDS011;62778;50.406;10.008;2022-12-05T05:12:12;18.08;;;10.00;;
74347;SDS011;62778;50.406;10.008;2022-12-05T05:13:08;17.20;;;8.80;;
74347;SDS011;62778;50.406;10.008;2022-12-05T05:14:03;20.13;;;9.57;;
74347;SDS011;62778;50.406;10.008;2022-12-05T05:14:59;18.58;;;10.68;;
74347;SDS011;62778;50.406;10.008;2022-12-05T05:15:54;21.63;;;10.63;;
74347;SDS011;62778;50.406;10.008;2022-12-05T05:16:49;20.10;;;10.60;;
74347;SDS011;62778;50.406;10.008;2022-12-05T05:17:45;19.90;;;11.30;;
74347;SDS011;62778;50.406;10.008;2022-12-05T05:18:40;20.77;;;10.88;;
74347;SDS011;62778;50.406;10.008;2022-12-05T05:19:35;20.00;;;10.60;;
74347;SDS011;62778;50.406;10.008;2022-12-05T05:20:31;22.87;;;11.13;;
74347;SDS011;62778;50.406;10.008;2022-12-05T05:21:33;20.37;;;11.03;;
74347;SDS011;62778;50.406;10.008;2022-12-05T05:22:30;21.00;;;10.10;;
74347;SDS011;62778;50.406;10.008;2022-12-05T05:23:25;15.27;;;8.53;;
74347;SDS011;62778;50.406;10.008;2022-12-05T05:24:21;14.53;;;8.90;;
74347;SDS011;62778;50.406;10.008;2022-12-05T05:25:17;17.95;;;9.27;;
74347;SDS011;62778;50.406;10.008;2022-12-05T05:26:13;15.73;;;9.00;;
74347;SDS011;62778;50.406;10.008;2022-12-05T05:27:09;17.30;;;9.15;;
74347;SDS011;62778;50.406;10.008;2022-12-05T05:28:04;15.43;;;8.30;;
74347;SDS011;62778;50.406;10.008;2022-12-05T05:28:59;15.83;;;8.40;;
74347;SDS011;62778;50.406;10.008;2022-12-05T05:29:55;16.13;;;8.32;;
74347;SDS011;62778;50.406;10.008;2022-12-05T05:30:50;14.80;;;8.10;;
74347;SDS011;62778;50.406;10.008;2022-12-05T05:31:45;15.80;;;8.40;;
74347;SDS011;62778;50.406;10.008;2022-12-05T05:32:41;15.27;;;8.67;;
74347;SDS011;62778;50.406;10.008;2022-12-05T05:33:36;16.10;;;9.30;;
74347;SDS011;62778;50.406;10.008;2022-12-05T05:34:31;14.73;;;7.22;;
74347;SDS011;62778;50.406;10.008;2022-12-05T05:35:27;17.07;;;8.57;;
74347;SDS011;62778;50.406;10.008;2022-12-05T05:36:23;17.93;;;9.37;;
74347;SDS011;62778;50.406;10.008;2022-12-05T05:37:19;15.20;;;8.63;;
74347;SDS011;62778;50.406;10.008;2022-12-05T05:38:15;14.17;;;7.13;;
74347;SDS011;62778;50.406;10.008;2022-12-05T05:39:11;11.52;;;6.90;;
74347;SDS011;62778;50.406;10.008;2022-12-05T05:40:08;10.40;;;5.87;;
74347;SDS011;62778;50.406;10.008;2022-12-05T05:41:05;11.98;;;6.72;;
74347;SDS011;62778;50.406;10.008;2022-12-05T05:42:00;13.05;;;7.75;;
74347;SDS011;62778;50.406;10.008;2022-12-05T05:42:55;15.57;;;9.67;;
74347;SDS011;62778;50.406;10.008;2022-12-05T05:43:51;13.43;;;7.90;;
74347;SDS011;62778;50.406;10.008;2022-12-05T05:44:47;12.75;;;7.13;;
74347;SDS011;62778;50.406;10.008;2022-12-05T05:45:42;10.93;;;6.20;;
74347;SDS011;62778;50.406;10.008;2022-12-05T05:46:38;12.70;;;6.82;;
74347;SDS011;62778;50.406;10.008;2022-12-05T05:47:33;10.93;;;5.90;;
74347;SDS011;62778;50.406;10.008;2022-12-05T05:48:29;10.40;;;5.30;;
74347;SDS011;62778;50.406;10.008;2022-12-05T05:49:24;9.75;;;5.15;;
74347;SDS011;62778;50.406;10.008;2022-12-05T05:50:19;9.17;;;5.30;;
74347;SDS011;62778;50.406;10.008;2022-12-05T05:51:15;11.97;;;5.60;;
74347;SDS011;62778;50.406;10.008;2022-12-05T05:52:11;11.45;;;6.70;;
74347;SDS011;62778;50.406;10.008;2022-12-05T05:53:06;14.27;;;7.77;;
74347;SDS011;62778;50.406;10.008;2022-12-05T05:54:01;9.17;;;4.97;;
74347;SDS011;62778;50.406;10.008;2022-12-05T05:54:57;9.18;;;5.05;;
74347;SDS011;62778;50.406;10.008;2022-12-05T05:55:52;8.17;;;4.80;;
74347;SDS011;62778;50.406;10.008;2022-12-05T05:56:47;8.57;;;5.00;;
74347;SDS011;62778;50.406;10.008;2022-12-05T05:57:43;10.30;;;5.13;;
74347;SDS011;62778;50.406;10.008;2022-12-05T05:58:38;8.93;;;4.60;;
74347;SDS011;62778;50.406;10.008;2022-12-05T05:59:34;9.13;;;5.35;;
74347;SDS011;62778;50.406;10.008;2022-12-05T06:00:29;9.37;;;5.60;;
74347;SDS011;62778;50.406;10.008;2022-12-05T06:01:24;8.13;;;4.77;;
74347;SDS011;62778;50.406;10.008;2022-12-05T06:02:20;7.97;;;4.68;;
74347;SDS011;62778;50.406;10.008;2022-12-05T06:03:16;9.77;;;5.00;;
74347;SDS011;62778;50.406;10.008;2022-12-05T06:04:11;7.93;;;4.57;;
74347;SDS011;62778;50.406;10.008;2022-12-05T06:05:06;7.30;;;4.40;;
74347;SDS011;62778;50.406;10.008;2022-12-05T06:06:03;7.80;;;4.50;;
74347;SDS011;62778;50.406;10.008;2022-12-05T06:07:00;9.03;;;5.37;;
74347;SDS011;62778;50.406;10.008;2022-12-05T06:07:55;8.38;;;4.68;;
74347;SDS011;62778;50.406;10.008;2022-12-05T06:08:51;8.90;;;4.57;;
74347;SDS011;62778;50.406;10.008;2022-12-05T06:09:46;9.23;;;5.10;;
74347;SDS011;62778;50.406;10.008;2022-12-05T06:10:42;8.30;;;4.70;;
74347;SDS011;62778;50.406;10.008;2022-12-05T06:11:37;8.75;;;5.10;;
74347;SDS011;62778;50.406;10.008;2022-12-05T06:12:32;8.13;;;5.00;;
74347;SDS011;62778;50.406;10.008;2022-12-05T06:13:28;9.07;;;5.00;;
74347;SDS011;62778;50.406;10.008;2022-12-05T06:14:23;9.03;;;4.70;;
74347;SDS011;62778;50.406;10.008;2022-12-05T06:15:18;8.88;;;5.10;;